Saratoga Center, Illinois
Current Conditions -  °F | °C
As of 2:15 AM on Tuesday 21 Oct 2014 (Local Time) from KC75 Reporting Station
Clear Clear  
Wind Chill: 39°   Ceiling: Unl
Heat Index: 39°   Visibility: 10mi
Dew Point: 38°   Wind: 0mph
Humidity: 95%   Direction: NA
Pressure: 30.04"   Gusts: NA
Location:  41.1083°N, 89.4425°W
Report Text: KC75 210715Z AUTO 00000KT 10SM CLR 04/03 A3004 RMK AO2 T00410034
Loading
Personal Weather Stations






























Interactive Weather Map
Tropical Storm Tracking
New forecast layout! Learn more

10-Day Weather Forecast

Advertisements
Track Severe Weather on mobile